createdAt,value
2018-08-18T00:02:38.022Z,91.63
2018-08-18T00:05:40.328Z,92.50
2018-08-18T00:08:42.534Z,93.02
2018-08-18T00:11:44.772Z,92.76
2018-08-18T00:14:46.984Z,93.22
2018-08-18T00:17:49.194Z,92.22
2018-08-18T00:20:51.454Z,91.98
2018-08-18T00:24:16.462Z,91.56
2018-08-18T00:27:18.681Z,91.30
2018-08-18T00:30:25.886Z,90.20
2018-08-18T00:33:28.083Z,89.83
2018-08-18T00:36:30.383Z,88.97
2018-08-18T00:39:32.740Z,89.42
2018-08-18T00:42:35.061Z,89.27
2018-08-18T00:45:37.371Z,88.88
2018-08-18T00:48:39.591Z,89.34
2018-08-18T00:51:41.893Z,89.01
2018-08-18T00:54:44.113Z,89.09
2018-08-18T00:57:46.378Z,89.00
2018-08-18T01:00:54.352Z,89.36
2018-08-18T01:03:58.512Z,89.17
2018-08-18T01:07:02.106Z,88.68
2018-08-18T01:10:04.573Z,89.26
2018-08-18T01:13:06.892Z,88.78
2018-08-18T01:16:09.089Z,89.11
2018-08-18T01:19:11.339Z,89.29
2018-08-18T01:22:13.589Z,89.96
2018-08-18T01:25:15.858Z,89.99
2018-08-18T01:28:18.124Z,90.20
2018-08-18T01:31:22.040Z,90.86
2018-08-18T01:34:24.264Z,90.82
2018-08-18T01:37:26.593Z,91.76
2018-08-18T01:40:29.050Z,91.71
2018-08-18T01:43:31.290Z,92.64
2018-08-18T01:46:33.604Z,93.70
2018-08-18T01:49:36.606Z,94.45
2018-08-18T01:52:38.913Z,94.87
2018-08-18T01:55:41.322Z,95.63
2018-08-18T01:58:43.533Z,96.44
2018-08-18T02:01:46.034Z,96.21
2018-08-18T02:04:48.679Z,96.54
2018-08-18T02:07:50.915Z,96.61
2018-08-18T02:10:53.217Z,97.68
2018-08-18T02:13:56.233Z,98.82
2018-08-18T02:17:10.802Z,98.33
2018-08-18T02:20:12.990Z,99.25
2018-08-18T02:23:15.220Z,99.56
2018-08-18T02:26:17.497Z,99.58
2018-08-18T02:29:19.685Z,100.00
2018-08-18T02:32:27.722Z,100.00
2018-08-18T02:35:30.065Z,100.00
2018-08-18T02:38:32.264Z,100.00
2018-08-18T02:41:35.026Z,100.00
2018-08-18T02:44:37.246Z,100.00
2018-08-18T02:47:39.558Z,100.00
2018-08-18T02:50:47.664Z,100.00
2018-08-18T02:53:50.012Z,100.00
2018-08-18T02:56:52.295Z,100.00
2018-08-18T02:59:56.104Z,100.00
2018-08-18T03:02:58.342Z,100.00
2018-08-18T03:06:06.235Z,100.00
2018-08-18T03:09:09.463Z,100.00
2018-08-18T03:12:11.962Z,100.00
2018-08-18T03:15:28.862Z,100.00
2018-08-18T03:18:53.453Z,100.00
2018-08-18T03:21:56.717Z,100.00
2018-08-18T03:24:58.948Z,100.00
2018-08-18T03:28:01.171Z,100.00
2018-08-18T03:31:04.173Z,100.00
2018-08-18T03:34:07.048Z,100.00
2018-08-18T03:37:24.488Z,100.00
2018-08-18T03:40:26.750Z,100.00
2018-08-18T03:43:29.090Z,100.00
2018-08-18T03:46:31.385Z,100.00
2018-08-18T03:49:33.794Z,100.00
2018-08-18T03:52:35.985Z,100.00
2018-08-18T03:55:38.285Z,100.00
2018-08-18T03:58:50.821Z,100.00
2018-08-18T04:01:54.012Z,100.00
2018-08-18T04:05:00.912Z,100.00
2018-08-18T04:08:03.124Z,100.00
2018-08-18T04:11:05.274Z,100.00
2018-08-18T04:14:08.036Z,100.00
2018-08-18T04:17:22.061Z,100.00
2018-08-18T04:20:24.374Z,100.00
2018-08-18T04:23:26.594Z,100.00
2018-08-18T04:26:29.504Z,100.00
2018-08-18T04:29:31.786Z,100.00
2018-08-18T04:32:46.059Z,100.00
2018-08-18T04:35:52.842Z,100.00
2018-08-18T04:38:55.017Z,100.00
2018-08-18T04:41:57.188Z,100.00
2018-08-18T04:44:59.455Z,100.00
2018-08-18T04:48:01.621Z,100.00
2018-08-18T04:51:03.886Z,100.00
2018-08-18T04:54:06.630Z,100.00
2018-08-18T04:57:08.877Z,100.00
2018-08-18T05:00:13.140Z,100.00
2018-08-18T05:03:15.437Z,99.97
2018-08-18T05:06:22.035Z,96.59
2018-08-18T05:09:24.468Z,87.09
2018-08-18T05:12:26.761Z,84.39
2018-08-18T05:15:29.204Z,81.68
2018-08-18T05:18:31.367Z,77.93
2018-08-18T05:21:33.577Z,76.28
2018-08-18T05:24:35.791Z,74.96
2018-08-18T05:27:38.078Z,73.23
2018-08-18T05:30:40.586Z,72.39
2018-08-18T05:33:42.776Z,75.00
2018-08-18T05:36:45.074Z,77.24
2018-08-18T05:39:47.373Z,76.17
2018-08-18T05:42:49.686Z,74.02
2018-08-18T05:45:51.919Z,72.42
2018-08-18T05:48:54.878Z,71.29
2018-08-18T05:51:57.252Z,68.25
2018-08-18T05:54:59.552Z,67.43
2018-08-18T05:58:01.798Z,65.74
2018-08-18T06:01:14.506Z,67.78
2018-08-18T06:04:18.107Z,70.94
2018-08-18T06:07:20.473Z,68.71
2018-08-18T06:10:22.816Z,65.96
2018-08-18T06:13:25.008Z,65.32
2018-08-18T06:16:27.304Z,66.00
2018-08-18T06:19:29.498Z,67.34
2018-08-18T06:22:31.719Z,67.40
2018-08-18T06:25:34.146Z,63.95
2018-08-18T06:28:36.386Z,65.05
2018-08-18T06:31:56.274Z,61.68
2018-08-18T06:34:58.500Z,62.90
2018-08-18T06:38:01.007Z,63.23
2018-08-18T06:41:03.559Z,62.98
2018-08-18T06:44:05.818Z,62.20
2018-08-18T06:47:08.010Z,62.81
2018-08-18T06:50:12.191Z,61.30
2018-08-18T06:53:14.484Z,62.37
2018-08-18T06:56:16.809Z,60.27
2018-08-18T06:59:18.964Z,62.17
2018-08-18T07:02:24.293Z,62.30
2018-08-18T07:05:26.424Z,64.31
2018-08-18T07:08:28.834Z,61.31
2018-08-18T07:11:30.949Z,62.79
2018-08-18T07:14:33.258Z,60.52
2018-08-18T07:17:35.534Z,59.43
2018-08-18T07:20:37.921Z,59.67
2018-08-18T07:23:40.148Z,58.18
2018-08-18T07:26:42.361Z,57.29
2018-08-18T07:29:48.853Z,60.12
2018-08-18T07:32:51.153Z,58.53
2018-08-18T07:35:54.677Z,61.21
2018-08-18T07:38:56.806Z,60.54
2018-08-18T07:41:58.977Z,60.08
2018-08-18T07:45:01.237Z,59.35
2018-08-18T07:48:04.283Z,58.56
2018-08-18T07:51:06.514Z,60.56
2018-08-18T07:54:08.644Z,64.40
2018-08-18T07:57:10.797Z,65.31
2018-08-18T08:00:13.051Z,65.34
2018-08-18T08:03:16.051Z,60.29
2018-08-18T08:06:18.242Z,63.29
2018-08-18T08:09:20.525Z,63.10
2018-08-18T08:12:22.721Z,63.59
2018-08-18T08:15:24.916Z,66.62
2018-08-18T08:18:27.112Z,66.51
2018-08-18T08:21:29.317Z,66.82
2018-08-18T08:24:31.524Z,64.92
2018-08-18T08:27:33.756Z,64.54
2018-08-18T08:30:35.997Z,63.80
2018-08-18T08:33:38.476Z,62.04
2018-08-18T08:36:40.659Z,63.63
2018-08-18T08:39:43.761Z,63.99
2018-08-18T08:42:46.086Z,61.45
2018-08-18T08:45:48.331Z,60.26
2018-08-18T08:48:53.019Z,60.29
2018-08-18T08:51:55.330Z,57.87
2018-08-18T08:54:57.573Z,57.84
2018-08-18T08:58:00.008Z,58.53
2018-08-18T09:01:02.260Z,57.56
2018-08-18T09:04:04.491Z,56.38
2018-08-18T09:07:08.040Z,54.91
2018-08-18T09:10:12.021Z,54.67
2018-08-18T09:13:14.216Z,55.96
2018-08-18T09:16:16.544Z,53.93
2018-08-18T09:19:20.574Z,54.94
2018-08-18T09:22:23.102Z,53.37
2018-08-18T09:25:27.672Z,53.14
2018-08-18T09:28:30.070Z,54.92
2018-08-18T09:31:32.274Z,55.94
2018-08-18T09:34:40.124Z,52.87
2018-08-18T09:37:47.116Z,53.58
2018-08-18T09:40:51.568Z,52.80
2018-08-18T09:43:53.856Z,52.86
2018-08-18T09:46:56.791Z,52.43
2018-08-18T09:49:59.114Z,51.05
2018-08-18T09:53:01.365Z,51.95
2018-08-18T09:56:03.561Z,52.78
2018-08-18T09:59:05.877Z,51.06
2018-08-18T10:02:09.676Z,50.62
2018-08-18T10:05:12.075Z,50.58
2018-08-18T10:08:14.541Z,51.41
2018-08-18T10:11:17.175Z,49.88
2018-08-18T10:14:19.456Z,52.96
2018-08-18T10:17:21.785Z,53.36
2018-08-18T10:20:24.004Z,51.95
2018-08-18T10:23:26.226Z,52.84
2018-08-18T10:26:28.623Z,51.92
2018-08-18T10:29:30.925Z,50.21
2018-08-18T10:32:37.753Z,50.83
2018-08-18T10:35:41.037Z,51.59
2018-08-18T10:38:43.356Z,52.90
2018-08-18T10:41:56.999Z,52.94
2018-08-18T10:45:03.577Z,52.91
2018-08-18T10:48:05.950Z,51.66
2018-08-18T10:51:28.236Z,49.22
2018-08-18T10:54:30.567Z,49.48
2018-08-18T10:57:45.422Z,50.51
2018-08-18T11:00:47.733Z,50.73
2018-08-18T11:03:50.450Z,49.26
2018-08-18T11:06:52.814Z,50.41
2018-08-18T11:09:55.316Z,50.38
2018-08-18T11:12:57.597Z,50.94
2018-08-18T11:15:59.970Z,49.12
2018-08-18T11:19:02.264Z,49.78
2018-08-18T11:22:15.803Z,48.69
2018-08-18T11:25:19.860Z,49.00
2018-08-18T11:28:22.714Z,49.26
2018-08-18T11:31:24.943Z,50.36
2018-08-18T11:34:27.254Z,47.20
2018-08-18T11:37:29.551Z,48.20
2018-08-18T11:40:31.934Z,50.29
2018-08-18T11:43:51.404Z,48.56
2018-08-18T11:46:53.680Z,47.02
2018-08-18T11:49:55.969Z,47.19
2018-08-18T11:52:58.250Z,48.07
2018-08-18T11:56:00.467Z,49.51
2018-08-18T11:59:11.787Z,49.58
2018-08-18T12:02:14.100Z,50.07
2018-08-18T12:05:16.285Z,49.04
2018-08-18T12:08:19.415Z,49.06
2018-08-18T12:11:21.692Z,49.05
2018-08-18T12:14:23.999Z,48.15
2018-08-18T12:17:26.277Z,47.19
2018-08-18T12:20:28.684Z,47.35
2018-08-18T12:23:31.381Z,45.24
2018-08-18T12:26:33.741Z,43.95
2018-08-18T12:29:36.009Z,42.75
2018-08-18T12:32:38.175Z,42.65
2018-08-18T12:35:41.119Z,43.06
2018-08-18T12:38:45.924Z,42.71
2018-08-18T12:41:48.229Z,42.22
2018-08-18T12:44:50.539Z,44.31
2018-08-18T12:48:09.501Z,43.97
2018-08-18T12:51:12.904Z,41.49
2018-08-18T12:54:15.219Z,41.40
2018-08-18T12:57:29.712Z,42.87
2018-08-18T13:00:31.947Z,43.56
2018-08-18T13:03:34.118Z,44.41
2018-08-18T13:06:40.761Z,42.13
2018-08-18T13:09:43.098Z,43.17
2018-08-18T13:12:45.388Z,41.33
2018-08-18T13:15:49.469Z,41.81
2018-08-18T13:18:51.654Z,40.11
2018-08-18T13:21:54.960Z,41.61
2018-08-18T13:24:58.147Z,41.13
2018-08-18T13:28:02.572Z,42.08
2018-08-18T13:31:04.872Z,42.00
2018-08-18T13:34:08.141Z,41.53
2018-08-18T13:37:10.391Z,41.08
2018-08-18T13:40:13.078Z,40.97
2018-08-18T13:43:15.315Z,39.96
2018-08-18T13:46:19.407Z,40.00
2018-08-18T13:49:24.060Z,39.29
2018-08-18T13:52:29.008Z,39.15
2018-08-18T13:55:36.545Z,40.59
2018-08-18T13:58:38.888Z,39.29
2018-08-18T14:01:42.417Z,39.17
2018-08-18T14:04:44.809Z,38.35
2018-08-18T14:07:53.703Z,38.07
2018-08-18T14:10:55.996Z,38.29
2018-08-18T14:14:00.492Z,37.66
2018-08-18T14:17:02.799Z,37.55
2018-08-18T14:20:05.214Z,37.54
2018-08-18T14:23:08.016Z,35.38
2018-08-18T14:26:10.387Z,36.85
2018-08-18T14:29:13.024Z,34.78
2018-08-18T14:32:23.787Z,36.57
2018-08-18T14:35:26.060Z,36.63
2018-08-18T14:38:28.257Z,37.78
2018-08-18T14:41:38.152Z,36.28
2018-08-18T14:44:40.387Z,35.39
2018-08-18T14:47:42.773Z,35.63
2018-08-18T14:50:45.069Z,35.44
2018-08-18T14:53:47.444Z,36.28
2018-08-18T14:56:49.740Z,36.07
2018-08-18T14:59:52.181Z,36.23
2018-08-18T15:02:54.516Z,35.84
2018-08-18T15:05:56.809Z,35.26
2018-08-18T15:08:59.106Z,35.78
2018-08-18T15:12:02.102Z,35.53
2018-08-18T15:15:04.509Z,35.05
2018-08-18T15:18:09.685Z,34.65
2018-08-18T15:21:12.002Z,35.68
2018-08-18T15:24:14.296Z,35.22
2018-08-18T15:27:16.689Z,35.90
2018-08-18T15:30:19.282Z,36.70
2018-08-18T15:33:22.943Z,36.76
2018-08-18T15:36:31.889Z,36.01
2018-08-18T15:39:34.084Z,37.18
2018-08-18T15:42:36.465Z,36.42
2018-08-18T15:45:57.074Z,37.42
2018-08-18T15:48:59.380Z,36.06
2018-08-18T15:52:01.645Z,36.28
2018-08-18T15:55:04.618Z,36.28
2018-08-18T15:58:06.932Z,35.55
2018-08-18T16:01:09.145Z,34.33
2018-08-18T16:04:11.498Z,34.48
2018-08-18T16:07:13.723Z,36.76
2018-08-18T16:10:16.004Z,37.47
2018-08-18T16:13:18.237Z,35.61
2018-08-18T16:16:20.603Z,34.50
2018-08-18T16:19:23.080Z,34.17
2018-08-18T16:22:25.325Z,34.41
2018-08-18T16:25:35.380Z,34.58
2018-08-18T16:28:38.091Z,35.49
2018-08-18T16:31:40.277Z,36.00
2018-08-18T16:34:44.223Z,36.41
2018-08-18T16:37:46.564Z,36.86
2018-08-18T16:40:48.781Z,36.48
2018-08-18T16:43:51.093Z,36.45
2018-08-18T16:46:53.451Z,37.01
2018-08-18T16:49:55.740Z,37.41
2018-08-18T16:52:59.392Z,37.85
2018-08-18T16:56:01.682Z,35.90
2018-08-18T16:59:03.948Z,36.80
2018-08-18T17:02:13.445Z,37.65
2018-08-18T17:05:15.706Z,36.88
2018-08-18T17:08:17.956Z,36.93
2018-08-18T17:11:21.233Z,36.79
2018-08-18T17:14:23.718Z,36.46
2018-08-18T17:17:26.278Z,37.17
2018-08-18T17:20:28.640Z,36.91
2018-08-18T17:23:32.134Z,37.38
2018-08-18T17:26:34.353Z,38.21
2018-08-18T17:29:38.295Z,38.10
2018-08-18T17:32:40.423Z,36.79
2018-08-18T17:35:42.723Z,38.38
2018-08-18T17:38:45.138Z,38.67
2018-08-18T17:41:47.397Z,38.13
2018-08-18T17:44:49.699Z,39.00
2018-08-18T17:47:52.893Z,40.10
2018-08-18T17:50:55.485Z,40.64
2018-08-18T17:53:57.654Z,41.13
2018-08-18T17:57:00.021Z,42.32
2018-08-18T18:00:07.944Z,42.65
2018-08-18T18:03:10.291Z,43.91
2018-08-18T18:06:12.511Z,44.45
2018-08-18T18:09:14.720Z,47.15
2018-08-18T18:12:25.608Z,47.76
2018-08-18T18:15:30.592Z,48.98
2018-08-18T18:18:38.489Z,51.10
2018-08-18T18:21:41.616Z,52.26
2018-08-18T18:24:43.865Z,52.39
2018-08-18T18:27:46.291Z,54.80
2018-08-18T18:30:51.229Z,55.76
2018-08-18T18:34:08.596Z,56.45
2018-08-18T18:37:10.979Z,58.40
2018-08-18T18:40:13.309Z,58.63
2018-08-18T18:43:15.518Z,59.62
2018-08-18T18:46:17.765Z,60.86
2018-08-18T18:49:30.126Z,61.70
2018-08-18T18:52:32.352Z,62.49
2018-08-18T18:55:40.631Z,63.91
2018-08-18T18:58:42.983Z,63.59
2018-08-18T19:01:45.342Z,64.15
2018-08-18T19:04:47.556Z,65.27
2018-08-18T19:08:04.915Z,65.40
2018-08-18T19:11:07.308Z,68.46
2018-08-18T19:14:09.649Z,69.39
2018-08-18T19:17:12.007Z,70.97
2018-08-18T19:20:19.284Z,70.32
2018-08-18T19:23:21.493Z,71.38
2018-08-18T19:26:23.803Z,71.78
2018-08-18T19:29:27.043Z,72.19
2018-08-18T19:32:29.451Z,72.87
2018-08-18T19:35:36.446Z,71.84
2018-08-18T19:38:38.690Z,73.08
2018-08-18T19:41:40.932Z,73.64
2018-08-18T19:44:44.591Z,73.96
2018-08-18T19:47:46.910Z,74.09
2018-08-18T19:50:55.835Z,73.78
2018-08-18T19:53:58.176Z,75.24
2018-08-18T19:57:00.373Z,75.98
2018-08-18T20:00:26.348Z,76.47
2018-08-18T20:03:28.570Z,75.45
2018-08-18T20:06:30.837Z,76.26
2018-08-18T20:09:33.153Z,77.32
2018-08-18T20:12:35.470Z,76.45
2018-08-18T20:15:37.866Z,77.40
2018-08-18T20:18:40.266Z,78.42
2018-08-18T20:21:42.519Z,78.17
2018-08-18T20:24:44.778Z,78.76
2018-08-18T20:27:47.062Z,79.49
2018-08-18T20:30:49.483Z,80.10
2018-08-18T20:33:51.766Z,79.51
2018-08-18T20:36:54.110Z,80.28
2018-08-18T20:39:56.449Z,79.97
2018-08-18T20:42:58.754Z,80.25
2018-08-18T20:46:01.178Z,80.69
2018-08-18T20:49:03.550Z,81.48
2018-08-18T20:52:06.821Z,81.41
2018-08-18T20:55:09.533Z,81.79
2018-08-18T20:58:12.119Z,80.97
2018-08-18T21:01:14.336Z,81.67
2018-08-18T21:04:17.138Z,81.54
2018-08-18T21:07:19.707Z,81.33
2018-08-18T21:10:21.974Z,81.25
2018-08-18T21:13:24.674Z,80.94
2018-08-18T21:16:27.006Z,81.18
2018-08-18T21:19:29.256Z,82.27
2018-08-18T21:22:32.091Z,82.38
2018-08-18T21:25:48.240Z,82.89
2018-08-18T21:28:52.579Z,83.72
2018-08-18T21:31:54.906Z,83.62
2018-08-18T21:34:57.140Z,83.62
2018-08-18T21:37:59.429Z,83.05
2018-08-18T21:41:01.712Z,82.83
2018-08-18T21:44:04.753Z,82.69
2018-08-18T21:47:07.126Z,83.70
2018-08-18T21:50:09.433Z,82.95
2018-08-18T21:53:13.231Z,82.58
2018-08-18T21:56:15.576Z,84.18
2018-08-18T21:59:17.758Z,84.69
2018-08-18T22:02:32.327Z,84.20
2018-08-18T22:05:34.496Z,85.59
2018-08-18T22:08:36.940Z,85.19
2018-08-18T22:11:39.171Z,84.83
2018-08-18T22:14:41.440Z,86.08
2018-08-18T22:17:43.997Z,85.51
2018-08-18T22:20:46.197Z,86.06
2018-08-18T22:23:48.575Z,85.90
2018-08-18T22:26:50.952Z,86.24
2018-08-18T22:29:53.278Z,85.83
2018-08-18T22:32:55.670Z,86.13
2018-08-18T22:35:58.081Z,86.16
2018-08-18T22:39:00.764Z,87.56
2018-08-18T22:42:03.136Z,87.84
2018-08-18T22:45:16.776Z,87.80
2018-08-18T22:48:19.121Z,87.45
2018-08-18T22:51:21.501Z,88.57
2018-08-18T22:54:23.906Z,89.48
2018-08-18T22:57:26.165Z,89.42
2018-08-18T23:00:28.589Z,89.33
2018-08-18T23:03:32.519Z,89.40
2018-08-18T23:06:35.878Z,89.31
2018-08-18T23:09:38.153Z,90.16
2018-08-18T23:12:40.727Z,89.79
2018-08-18T23:15:47.612Z,89.91
2018-08-18T23:18:49.926Z,90.65
2018-08-18T23:21:52.124Z,91.01
2018-08-18T23:24:54.399Z,91.94
2018-08-18T23:27:56.863Z,91.97
2018-08-18T23:30:59.152Z,92.42
2018-08-18T23:34:01.574Z,92.25
2018-08-18T23:37:04.551Z,91.88
2018-08-18T23:40:06.966Z,92.03
2018-08-18T23:43:09.318Z,92.32
2018-08-18T23:46:11.706Z,92.69
2018-08-18T23:49:14.131Z,92.76
2018-08-18T23:52:16.589Z,92.69
2018-08-18T23:55:18.948Z,93.80
2018-08-18T23:58:21.732Z,94.07
